createdAt,value
2022-10-17T00:00:38.393Z,95816.16
2022-10-17T00:03:05.412Z,95813.13
2022-10-17T00:05:32.016Z,95818.00
2022-10-17T00:07:58.634Z,95810.81
2022-10-17T00:10:25.443Z,95816.91
2022-10-17T00:12:52.461Z,95819.13
2022-10-17T00:15:20.603Z,95820.66
2022-10-17T00:17:47.413Z,95822.16
2022-10-17T00:20:14.818Z,95813.72
2022-10-17T00:22:41.540Z,95818.59
2022-10-17T00:25:08.609Z,95824.25
2022-10-17T00:27:37.151Z,95822.03
2022-10-17T00:30:05.208Z,95828.44
2022-10-17T00:32:32.074Z,95819.69
2022-10-17T00:34:58.837Z,95834.00
2022-10-17T00:37:25.892Z,95828.72
2022-10-17T00:39:52.557Z,95834.00
2022-10-17T00:42:19.075Z,95834.41
2022-10-17T00:44:47.574Z,95827.28
2022-10-17T00:47:19.638Z,95828.00
2022-10-17T00:49:46.306Z,95832.47
2022-10-17T00:52:17.869Z,95836.97
2022-10-17T00:54:49.511Z,95841.44
2022-10-17T00:57:17.353Z,95825.91
2022-10-17T00:59:49.312Z,95845.97
2022-10-17T01:02:19.254Z,95838.06
2022-10-17T01:04:48.973Z,95839.19
2022-10-17T01:07:15.622Z,95838.38
2022-10-17T01:09:44.567Z,95835.00
2022-10-17T01:12:36.611Z,95836.13
2022-10-17T01:15:03.118Z,95833.09
2022-10-17T01:17:50.835Z,95826.03
2022-10-17T01:20:39.010Z,95836.16
2022-10-17T01:23:15.783Z,95845.09
2022-10-17T01:26:05.144Z,95839.03
2022-10-17T01:29:01.141Z,95841.22
2022-10-17T01:31:48.522Z,95850.22
2022-10-17T01:34:21.314Z,95850.94
2022-10-17T01:37:01.592Z,95851.63
2022-10-17T01:39:54.166Z,95847.88
2022-10-17T01:42:48.947Z,95847.09
2022-10-17T01:45:25.575Z,95845.97
2022-10-17T01:47:54.560Z,95844.38
2022-10-17T01:50:28.634Z,95845.19
2022-10-17T01:53:01.749Z,95841.00
2022-10-17T01:55:34.196Z,95844.06
2022-10-17T01:58:10.259Z,95848.91
2022-10-17T02:00:39.921Z,95847.00
2022-10-17T02:03:09.484Z,95844.06
2022-10-17T02:05:39.745Z,95853.38
2022-10-17T02:08:06.922Z,95848.81
2022-10-17T02:10:44.934Z,95850.00
2022-10-17T02:13:42.302Z,95855.59
2022-10-17T02:16:27.706Z,95856.38
2022-10-17T02:19:12.739Z,95848.47
2022-10-17T02:21:55.600Z,95859.03
2022-10-17T02:24:48.703Z,95853.13
2022-10-17T02:27:17.562Z,95852.41
2022-10-17T02:29:50.389Z,95860.59
2022-10-17T02:32:28.438Z,95867.72
2022-10-17T02:35:00.461Z,95863.09
2022-10-17T02:37:31.494Z,95867.19
2022-10-17T02:40:00.604Z,95874.78
2022-10-17T02:42:29.037Z,95858.84
2022-10-17T02:45:01.149Z,95857.75
2022-10-17T02:47:33.631Z,95855.06
2022-10-17T02:50:02.014Z,95852.38
2022-10-17T02:52:34.919Z,95855.91
2022-10-17T02:55:24.478Z,95862.59
2022-10-17T02:57:56.894Z,95867.06
2022-10-17T03:00:26.549Z,95868.19
2022-10-17T03:02:54.308Z,95864.78
2022-10-17T03:05:27.257Z,95862.09
2022-10-17T03:07:54.826Z,95865.44
2022-10-17T03:10:22.467Z,95867.66
2022-10-17T03:12:49.105Z,95875.25
2022-10-17T03:15:15.727Z,95871.94
2022-10-17T03:17:42.400Z,95868.59
2022-10-17T03:20:09.297Z,95876.88
2022-10-17T03:22:35.854Z,95882.94
2022-10-17T03:25:02.399Z,95883.75
2022-10-17T03:27:29.415Z,95878.91
2022-10-17T03:29:56.091Z,95879.19
2022-10-17T03:32:22.638Z,95879.50
2022-10-17T03:34:49.387Z,95878.31
2022-10-17T03:37:15.906Z,95880.16
2022-10-17T03:39:42.465Z,95878.25
2022-10-17T03:42:09.353Z,95876.31
2022-10-17T03:44:35.865Z,95881.63
2022-10-17T03:47:03.030Z,95876.75
2022-10-17T03:49:29.751Z,95891.47
2022-10-17T03:51:56.307Z,95894.78
2022-10-17T03:54:22.821Z,95884.47
2022-10-17T03:56:49.511Z,95905.31
2022-10-17T03:59:16.825Z,95894.59
2022-10-17T04:01:43.865Z,95888.28
2022-10-17T04:04:10.748Z,95903.72
2022-10-17T04:06:38.199Z,95898.25
2022-10-17T04:09:06.106Z,95909.09
2022-10-17T04:11:33.001Z,95910.16
2022-10-17T04:13:59.953Z,95909.38
2022-10-17T04:16:27.229Z,95900.56
2022-10-17T04:18:56.103Z,95910.03
2022-10-17T04:21:24.791Z,95910.28
2022-10-17T04:23:55.583Z,95904.63
2022-10-17T04:26:22.138Z,95914.38
2022-10-17T04:28:48.814Z,95918.97
2022-10-17T04:31:16.099Z,95913.16
2022-10-17T04:33:42.829Z,95905.63
2022-10-17T04:36:14.375Z,95926.09
2022-10-17T04:38:41.219Z,95922.03
2022-10-17T04:41:14.622Z,95925.94
2022-10-17T04:43:43.430Z,95923.28
2022-10-17T04:46:13.139Z,95925.16
2022-10-17T04:48:40.557Z,95931.94
2022-10-17T04:51:11.322Z,95930.41
2022-10-17T04:53:39.396Z,95926.00
2022-10-17T04:56:17.638Z,95937.78
2022-10-17T04:58:45.304Z,95932.75
2022-10-17T05:01:14.603Z,95933.97
2022-10-17T05:03:41.714Z,95944.97
2022-10-17T05:06:11.340Z,95939.06
2022-10-17T05:08:38.171Z,95938.97
2022-10-17T05:11:06.230Z,95936.22
2022-10-17T05:13:33.400Z,95938.84
2022-10-17T05:16:01.201Z,95939.53
2022-10-17T05:18:28.875Z,95941.06
2022-10-17T05:20:55.722Z,95946.03
2022-10-17T05:23:22.457Z,95943.78
2022-10-17T05:25:54.926Z,95940.94
2022-10-17T05:28:22.125Z,95949.34
2022-10-17T05:30:48.707Z,95951.66
2022-10-17T05:33:15.669Z,95944.34
2022-10-17T05:35:42.318Z,95944.19
2022-10-17T05:38:08.911Z,95956.25
2022-10-17T05:40:35.499Z,95954.75
2022-10-17T05:43:02.040Z,95954.38
2022-10-17T05:45:28.551Z,95960.66
2022-10-17T05:47:55.230Z,95947.66
2022-10-17T05:50:24.006Z,95966.56
2022-10-17T05:52:53.834Z,95972.03
2022-10-17T05:55:20.377Z,95963.03
2022-10-17T05:57:47.207Z,95971.88
2022-10-17T06:00:14.152Z,95975.28
2022-10-17T06:02:40.862Z,95982.13
2022-10-17T06:05:07.869Z,95972.38
2022-10-17T06:07:36.058Z,95981.06
2022-10-17T06:10:03.015Z,95977.22
2022-10-17T06:12:29.805Z,95982.69
2022-10-17T06:14:56.597Z,95983.19
2022-10-17T06:17:23.476Z,95980.22
2022-10-17T06:19:50.201Z,95985.25
2022-10-17T06:22:16.724Z,95994.25
2022-10-17T06:24:43.582Z,95989.16
2022-10-17T06:27:11.952Z,95988.03
2022-10-17T06:29:39.139Z,95994.59
2022-10-17T06:32:08.633Z,95999.66
2022-10-17T06:34:37.991Z,96003.88
2022-10-17T06:37:04.595Z,96011.88
2022-10-17T06:39:34.007Z,96013.06
2022-10-17T06:42:01.550Z,96013.50
2022-10-17T06:44:31.662Z,96022.28
2022-10-17T06:46:59.737Z,96024.63
2022-10-17T06:49:27.046Z,96031.47
2022-10-17T06:51:54.064Z,96030.84
2022-10-17T06:54:21.228Z,96042.97
2022-10-17T06:56:47.861Z,96046.09
2022-10-17T06:59:15.619Z,96045.47
2022-10-17T07:01:46.153Z,96047.81
2022-10-17T07:04:13.850Z,96048.63
2022-10-17T07:06:40.729Z,96053.28
2022-10-17T07:09:08.032Z,96027.88
2022-10-17T07:11:35.282Z,96055.25
2022-10-17T07:14:02.436Z,96057.19
2022-10-17T07:16:29.564Z,96057.28
2022-10-17T07:18:56.599Z,96058.84
2022-10-17T07:21:23.318Z,96051.72
2022-10-17T07:23:50.358Z,96045.75
2022-10-17T07:26:18.136Z,96070.50
2022-10-17T07:28:46.341Z,96072.88
2022-10-17T07:31:18.203Z,96069.94
2022-10-17T07:36:13.383Z,96071.59
2022-10-17T07:38:40.243Z,96072.38
2022-10-17T07:41:08.624Z,96070.16
2022-10-17T07:43:36.818Z,96077.78
2022-10-17T07:46:05.391Z,96077.81
2022-10-17T07:48:32.253Z,96085.78
2022-10-17T07:51:02.726Z,96081.22
2022-10-17T07:53:29.625Z,96092.22
2022-10-17T07:55:56.189Z,96083.13
2022-10-17T07:58:22.823Z,96100.53
2022-10-17T08:00:51.203Z,96097.13
2022-10-17T08:03:17.957Z,96102.06
2022-10-17T08:05:44.579Z,96104.34
2022-10-17T08:08:11.455Z,96100.53
2022-10-17T08:10:38.083Z,96102.03
2022-10-17T08:13:04.704Z,96102.78
2022-10-17T08:15:32.182Z,96104.25
2022-10-17T08:17:59.157Z,96101.22
2022-10-17T08:20:26.026Z,96103.88
2022-10-17T08:22:56.206Z,96113.34
2022-10-17T08:25:23.681Z,96100.78
2022-10-17T08:27:50.295Z,96105.31
2022-10-17T08:30:17.575Z,96110.97
2022-10-17T08:32:44.199Z,96114.72
2022-10-17T08:35:10.879Z,96111.59
2022-10-17T08:37:37.792Z,96122.19
2022-10-17T08:40:04.805Z,96118.06
2022-10-17T08:43:06.292Z,96113.13
2022-10-17T08:45:35.707Z,96119.13
2022-10-17T08:48:05.682Z,96119.09
2022-10-17T08:50:42.793Z,96119.75
2022-10-17T08:53:23.086Z,96116.69
2022-10-17T08:55:51.888Z,96104.16
2022-10-17T08:58:24.354Z,96113.53
2022-10-17T09:01:28.586Z,96113.06
2022-10-17T09:04:26.214Z,96119.44
2022-10-17T09:07:15.224Z,96104.16
2022-10-17T09:10:19.085Z,96124.22
2022-10-17T09:13:10.723Z,96116.25
2022-10-17T09:15:46.018Z,96117.72
2022-10-17T09:18:22.052Z,96116.47
2022-10-17T09:20:53.291Z,96116.19
2022-10-17T09:23:27.186Z,96109.72
2022-10-17T09:25:56.115Z,96118.00
2022-10-17T09:28:36.419Z,96124.09
2022-10-17T09:31:07.445Z,96116.06
2022-10-17T09:33:55.639Z,96121.44
2022-10-17T09:36:29.635Z,96122.19
2022-10-17T09:38:58.950Z,96121.28
2022-10-17T09:41:46.394Z,96116.22
2022-10-17T09:44:22.010Z,96118.41
2022-10-17T09:47:12.998Z,96130.31
2022-10-17T09:49:42.422Z,96123.47
2022-10-17T09:52:22.130Z,96132.56
2022-10-17T09:54:52.356Z,96130.31
2022-10-17T09:57:21.132Z,96129.53
2022-10-17T10:00:04.134Z,96134.88
2022-10-17T10:02:32.892Z,96129.38
2022-10-17T10:05:16.870Z,96133.00
2022-10-17T10:07:59.678Z,96119.69
2022-10-17T10:10:28.649Z,96127.16
2022-10-17T10:13:21.530Z,96121.00
2022-10-17T10:15:50.319Z,96123.66
2022-10-17T10:18:35.853Z,96122.78
2022-10-17T10:21:20.904Z,96125.56
2022-10-17T10:24:10.791Z,96128.41
2022-10-17T10:26:37.542Z,96123.09
2022-10-17T10:29:19.152Z,96118.66
2022-10-17T10:31:46.647Z,96120.88
2022-10-17T10:34:29.374Z,96105.38
2022-10-17T10:37:03.301Z,96130.72
2022-10-17T10:39:53.521Z,96132.25
2022-10-17T10:42:34.047Z,96129.09
2022-10-17T10:45:47.934Z,96130.41
2022-10-17T10:48:21.755Z,96130.75
2022-10-17T10:50:57.561Z,96123.44
2022-10-17T10:53:35.381Z,96130.03
2022-10-17T10:56:23.006Z,96121.44
2022-10-17T10:58:53.315Z,96128.06
2022-10-17T11:01:45.808Z,96130.28
2022-10-17T11:04:21.465Z,96129.69
2022-10-17T11:06:50.219Z,96122.41
2022-10-17T11:09:44.904Z,96125.38
2022-10-17T11:15:20.983Z,96119.78
2022-10-17T11:18:01.194Z,96118.19
2022-10-17T11:20:36.923Z,96116.22
2022-10-17T11:23:24.080Z,96108.97
2022-10-17T11:25:52.940Z,96115.69
2022-10-17T11:28:23.111Z,96097.97
2022-10-17T11:31:03.342Z,96107.06
2022-10-17T11:33:58.466Z,96109.59
2022-10-17T11:36:31.504Z,96110.63
2022-10-17T11:39:03.778Z,96102.19
2022-10-17T11:41:55.239Z,96110.69
2022-10-17T11:44:42.485Z,96098.41
2022-10-17T11:47:30.302Z,96098.66
2022-10-17T11:52:58.717Z,96103.84
2022-10-17T11:55:27.734Z,96100.44
2022-10-17T11:58:06.662Z,96096.84
2022-10-17T12:01:05.160Z,96098.06
2022-10-17T12:03:59.676Z,96098.72
2022-10-17T12:07:03.637Z,96093.59
2022-10-17T12:09:46.346Z,96092.44
2022-10-17T12:12:34.401Z,96087.03
2022-10-17T12:15:13.269Z,96094.41
2022-10-17T12:17:44.877Z,96092.25
2022-10-17T12:20:21.213Z,96089.91
2022-10-17T12:22:50.029Z,96095.75
2022-10-17T12:28:28.489Z,96093.41
2022-10-17T12:31:16.155Z,96090.91
2022-10-17T12:33:59.918Z,96089.31
2022-10-17T12:36:26.404Z,96079.34
2022-10-17T12:39:02.039Z,96081.84
2022-10-17T12:41:41.089Z,96079.41
2022-10-17T12:44:14.266Z,96075.81
2022-10-17T12:46:56.011Z,96073.56
2022-10-17T12:49:45.717Z,96071.13
2022-10-17T12:52:24.442Z,96069.69
2022-10-17T12:55:13.396Z,96068.84
2022-10-17T12:58:03.621Z,96066.22
2022-10-17T13:01:05.338Z,96067.91
2022-10-17T13:03:44.426Z,96065.66
2022-10-17T13:06:27.209Z,96060.63
2022-10-17T13:09:04.446Z,96060.28
2022-10-17T13:11:34.103Z,96061.91
2022-10-17T13:14:03.675Z,96059.13
2022-10-17T13:16:37.954Z,96061.13
2022-10-17T13:19:44.036Z,96061.22
2022-10-17T13:22:17.167Z,96058.22
2022-10-17T13:24:44.746Z,96052.69
2022-10-17T13:27:35.422Z,96057.84
2022-10-17T13:30:21.345Z,96053.34
2022-10-17T13:32:48.095Z,96054.47
2022-10-17T13:35:17.351Z,96048.53
2022-10-17T13:37:51.539Z,96049.69
2022-10-17T13:40:44.454Z,96043.59
2022-10-17T13:43:19.756Z,96043.84
2022-10-17T13:45:49.930Z,96041.16
2022-10-17T13:48:20.719Z,96043.66
2022-10-17T13:50:50.885Z,96038.38
2022-10-17T13:53:32.832Z,96032.34
2022-10-17T13:59:08.229Z,96044.16
2022-10-17T14:01:35.133Z,96031.38
2022-10-17T14:04:08.867Z,96043.75
2022-10-17T14:06:46.426Z,96035.94
2022-10-17T14:09:27.175Z,96041.31
2022-10-17T14:12:03.923Z,96048.84
2022-10-17T14:14:46.033Z,96044.56
2022-10-17T14:17:36.042Z,96045.81
2022-10-17T14:23:17.602Z,96048.50
2022-10-17T14:25:40.850Z,96043.13
2022-10-17T14:28:09.354Z,96037.44
2022-10-17T14:30:55.805Z,96034.44
2022-10-17T14:33:29.948Z,96034.78
2022-10-17T14:35:59.034Z,96030.25
2022-10-17T14:38:27.429Z,96042.13
2022-10-17T14:41:20.937Z,96034.94
2022-10-17T14:43:58.290Z,96029.91
2022-10-17T14:46:25.346Z,96026.91
2022-10-17T14:48:58.961Z,96034.09
2022-10-17T14:51:25.941Z,96038.28
2022-10-17T14:54:25.952Z,96028.41
2022-10-17T14:56:53.948Z,96031.63
2022-10-17T14:59:51.643Z,96032.44
2022-10-17T15:02:10.531Z,96036.63
2022-10-17T15:04:37.083Z,96033.97
2022-10-17T15:07:03.717Z,96022.56
2022-10-17T15:09:31.174Z,96029.06
2022-10-17T15:12:02.708Z,96034.91
2022-10-17T15:14:29.246Z,96030.91
2022-10-17T15:16:56.141Z,96027.66
2022-10-17T15:19:22.707Z,96025.88
2022-10-17T15:21:49.305Z,96029.31
2022-10-17T15:24:16.323Z,96028.38
2022-10-17T15:26:42.994Z,96033.22
2022-10-17T15:29:15.218Z,96026.25
2022-10-17T15:31:42.204Z,96034.72
2022-10-17T15:34:08.730Z,96018.25
2022-10-17T15:36:48.231Z,96028.94
2022-10-17T15:39:14.808Z,96031.88
2022-10-17T15:41:41.529Z,96027.34
2022-10-17T15:44:08.251Z,96038.13
2022-10-17T15:46:35.943Z,96047.09
2022-10-17T15:49:05.785Z,96041.19
2022-10-17T15:51:32.422Z,96049.69
2022-10-17T15:54:01.551Z,96049.78
2022-10-17T15:56:36.381Z,96052.22
2022-10-17T15:59:05.821Z,96049.47
2022-10-17T16:01:33.956Z,96052.00
2022-10-17T16:04:00.767Z,96050.47
2022-10-17T16:06:27.683Z,96050.69
2022-10-17T16:08:54.227Z,96054.91
2022-10-17T16:11:26.732Z,96052.25
2022-10-17T16:13:55.023Z,96048.09
2022-10-17T16:16:22.536Z,96056.22
2022-10-17T16:18:49.580Z,96058.31
2022-10-17T16:21:17.792Z,96057.38
2022-10-17T16:23:45.036Z,96054.66
2022-10-17T16:26:14.445Z,96073.94
2022-10-17T16:28:46.098Z,96080.94
2022-10-17T16:31:23.426Z,96070.50
2022-10-17T16:33:52.899Z,96082.91
2022-10-17T16:36:20.292Z,96090.69
2022-10-17T16:38:47.975Z,96093.50
2022-10-17T16:41:27.780Z,96096.97
2022-10-17T16:43:56.497Z,96081.09
2022-10-17T16:46:24.577Z,96098.22
2022-10-17T16:48:51.528Z,96096.31
2022-10-17T16:51:20.015Z,96107.78
2022-10-17T16:53:50.151Z,96112.75
2022-10-17T16:56:18.927Z,96113.22
2022-10-17T16:58:45.898Z,96119.31
2022-10-17T17:01:16.166Z,96118.56
2022-10-17T17:03:45.213Z,96115.22
2022-10-17T17:06:15.216Z,96105.38
2022-10-17T17:08:43.402Z,96120.97
2022-10-17T17:11:12.228Z,96119.06
2022-10-17T17:13:39.084Z,96131.56
2022-10-17T17:16:12.818Z,96128.59
2022-10-17T17:18:39.958Z,96142.97
2022-10-17T17:21:08.383Z,96144.13
2022-10-17T17:23:37.285Z,96150.59
2022-10-17T17:26:07.606Z,96146.81
2022-10-17T17:28:35.139Z,96144.50
2022-10-17T17:31:02.447Z,96145.25
2022-10-17T17:33:30.205Z,96135.41
2022-10-17T17:36:00.037Z,96153.22
2022-10-17T17:38:29.641Z,96157.38
2022-10-17T17:40:56.604Z,96154.38
2022-10-17T17:43:23.526Z,96166.13
2022-10-17T17:45:50.225Z,96163.44
2022-10-17T17:48:16.854Z,96171.00
2022-10-17T17:50:44.273Z,96158.13
2022-10-17T17:53:13.207Z,96166.09
2022-10-17T17:55:40.224Z,96163.81
2022-10-17T17:58:08.236Z,96176.31
2022-10-17T18:00:36.158Z,96173.28
2022-10-17T18:03:02.750Z,96174.78
2022-10-17T18:05:30.070Z,96181.63
2022-10-17T18:07:56.912Z,96182.38
2022-10-17T18:10:23.558Z,96178.19
2022-10-17T18:12:50.119Z,96183.84
2022-10-17T18:15:17.166Z,96180.81
2022-10-17T18:17:43.742Z,96183.84
2022-10-17T18:20:10.653Z,96179.28
2022-10-17T18:22:37.610Z,96184.59
2022-10-17T18:25:05.616Z,96186.84
2022-10-17T18:27:32.371Z,96178.50
2022-10-17T18:29:58.963Z,96187.59
2022-10-17T18:32:25.610Z,96186.06
2022-10-17T18:34:52.259Z,96189.06
2022-10-17T18:37:18.825Z,96184.50
2022-10-17T18:39:48.512Z,96197.00
2022-10-17T18:42:15.101Z,96195.81
2022-10-17T18:44:41.629Z,96195.09
2022-10-17T18:47:08.228Z,96194.69
2022-10-17T18:49:35.589Z,96196.59
2022-10-17T18:52:02.350Z,96201.84
2022-10-17T18:54:29.418Z,96196.53
2022-10-17T18:56:56.350Z,96196.13
2022-10-17T18:59:23.665Z,96207.44
2022-10-17T19:01:50.550Z,96204.00
2022-10-17T19:04:17.199Z,96204.00
2022-10-17T19:06:43.908Z,96205.56
2022-10-17T19:09:13.138Z,96203.75
2022-10-17T19:11:40.098Z,96196.47
2022-10-17T19:14:12.800Z,96192.66
2022-10-17T19:16:49.073Z,96198.34
2022-10-17T19:19:24.411Z,96199.47
2022-10-17T19:21:51.264Z,96201.00
2022-10-17T19:24:24.418Z,96202.50
2022-10-17T19:26:55.765Z,96207.03
2022-10-17T19:29:26.078Z,96213.13
2022-10-17T19:31:53.201Z,96214.25
2022-10-17T19:34:20.015Z,96201.75
2022-10-17T19:36:46.849Z,96217.69
2022-10-17T19:39:16.432Z,96210.06
2022-10-17T19:41:44.779Z,96214.25
2022-10-17T19:44:11.423Z,96211.56
2022-10-17T19:46:38.261Z,96215.34
2022-10-17T19:49:05.642Z,96219.53
2022-10-17T19:51:32.755Z,96211.53
2022-10-17T19:54:00.802Z,96220.66
2022-10-17T19:56:29.495Z,96229.72
2022-10-17T19:58:57.117Z,96219.13
2022-10-17T20:01:27.159Z,96224.09
2022-10-17T20:03:54.778Z,96216.91
2022-10-17T20:06:22.294Z,96230.19
2022-10-17T20:08:49.398Z,96225.63
2022-10-17T20:11:20.035Z,96227.53
2022-10-17T20:13:47.192Z,96226.06
2022-10-17T20:16:18.054Z,96230.63
2022-10-17T20:18:45.242Z,96228.31
2022-10-17T20:21:14.843Z,96236.28
2022-10-17T20:23:42.239Z,96241.94
2022-10-17T20:26:33.665Z,96240.38
2022-10-17T20:29:08.846Z,96243.44
2022-10-17T20:31:35.839Z,96245.72
2022-10-17T20:34:02.399Z,96248.34
2022-10-17T20:36:28.989Z,96247.53
2022-10-17T20:38:57.107Z,96249.81
2022-10-17T20:41:24.505Z,96252.44
2022-10-17T20:43:52.647Z,96253.97
2022-10-17T20:46:36.405Z,96257.75
2022-10-17T20:49:05.161Z,96245.94
2022-10-17T20:51:31.816Z,96266.41
2022-10-17T20:53:58.431Z,96262.63
2022-10-17T20:56:28.440Z,96264.88
2022-10-17T20:59:00.865Z,96267.13
2022-10-17T21:01:28.721Z,96270.16
2022-10-17T21:03:56.989Z,96274.00
2022-10-17T21:06:25.686Z,96269.06
2022-10-17T21:08:54.646Z,96275.13
2022-10-17T21:11:26.262Z,96260.78
2022-10-17T21:13:58.983Z,96264.56
2022-10-17T21:16:26.839Z,96268.78
2022-10-17T21:18:54.639Z,96264.69
2022-10-17T21:21:28.106Z,96266.22
2022-10-17T21:23:58.309Z,96262.47
2022-10-17T21:26:24.888Z,96267.03
2022-10-17T21:28:51.709Z,96273.47
2022-10-17T21:31:26.684Z,96262.50
2022-10-17T21:33:58.430Z,96273.88
2022-10-17T21:36:27.082Z,96266.66
2022-10-17T21:38:56.027Z,96271.59
2022-10-17T21:41:25.277Z,96260.22
2022-10-17T21:43:56.732Z,96261.00
2022-10-17T21:46:24.303Z,96257.22
2022-10-17T21:48:52.081Z,96257.22
2022-10-17T21:51:19.735Z,96262.19
2022-10-17T21:53:46.684Z,96260.66
2022-10-17T21:56:16.483Z,96248.94
2022-10-17T21:58:43.360Z,96253.91
2022-10-17T22:01:18.326Z,96256.56
2022-10-17T22:03:47.797Z,96247.88
2022-10-17T22:09:05.234Z,96251.69
2022-10-17T22:11:35.083Z,96249.78
2022-10-17T22:14:07.759Z,96243.34
2022-10-17T22:16:35.099Z,96242.22
2022-10-17T22:19:06.217Z,96245.25
2022-10-17T22:21:35.600Z,96240.69
2022-10-17T22:24:05.531Z,96237.69
2022-10-17T22:26:33.926Z,96240.00
2022-10-17T22:29:01.059Z,96232.38
2022-10-17T22:31:27.714Z,96243.78
2022-10-17T22:33:54.262Z,96246.06
2022-10-17T22:36:20.990Z,96249.88
2022-10-17T22:38:47.508Z,96245.31
2022-10-17T22:41:14.048Z,96240.00
2022-10-17T22:43:40.762Z,96238.09
2022-10-17T22:46:08.501Z,96248.34
2022-10-17T22:48:35.071Z,96246.44
2022-10-17T22:51:02.045Z,96242.66
2022-10-17T22:53:29.718Z,96247.22
2022-10-17T22:56:01.672Z,96233.94
2022-10-17T22:58:30.402Z,96238.50
2022-10-17T23:00:57.601Z,96239.25
2022-10-17T23:03:25.325Z,96242.66
2022-10-17T23:05:51.861Z,96249.09
2022-10-17T23:08:18.976Z,96243.81
2022-10-17T23:10:46.928Z,96248.72
2022-10-17T23:13:14.544Z,96240.00
2022-10-17T23:15:41.883Z,96226.34
2022-10-17T23:18:09.873Z,96248.69
2022-10-17T23:20:37.890Z,96250.59
2022-10-17T23:23:05.293Z,96244.13
2022-10-17T23:25:34.493Z,96247.53
2022-10-17T23:28:01.608Z,96248.66
2022-10-17T23:30:28.491Z,96248.25
2022-10-17T23:32:55.182Z,96236.88
2022-10-17T23:35:21.751Z,96242.56
2022-10-17T23:37:48.335Z,96246.34
2022-10-17T23:40:14.975Z,96233.81
2022-10-17T23:42:41.514Z,96234.59
2022-10-17T23:45:08.764Z,96249.00
2022-10-17T23:47:35.414Z,96244.44
2022-10-17T23:50:01.961Z,96254.69
2022-10-17T23:52:28.498Z,96249.72
2022-10-17T23:54:55.216Z,96255.06
2022-10-17T23:57:21.787Z,96231.56
2022-10-17T23:59:48.365Z,96245.59
